createdAt,value
2019-03-28T00:01:53.609Z,5.30
2019-03-28T00:04:22.163Z,5.20
2019-03-28T00:06:50.804Z,5.20
2019-03-28T00:09:19.646Z,5.30
2019-03-28T00:11:49.165Z,5.30
2019-03-28T00:14:17.888Z,5.30
2019-03-28T00:16:46.663Z,5.40
2019-03-28T00:19:15.213Z,5.40
2019-03-28T00:21:43.763Z,5.40
2019-03-28T00:24:16.865Z,5.40
2019-03-28T00:26:45.410Z,5.50
2019-03-28T00:29:13.961Z,5.50
2019-03-28T00:31:42.561Z,5.50
2019-03-28T00:34:11.101Z,5.50
2019-03-28T00:36:39.650Z,5.60
2019-03-28T00:39:08.243Z,5.60
2019-03-28T00:41:36.791Z,5.60
2019-03-28T00:44:05.414Z,5.60
2019-03-28T00:46:35.504Z,5.50
2019-03-28T00:49:04.414Z,5.50
2019-03-28T00:51:32.966Z,5.40
2019-03-28T00:54:01.669Z,5.40
2019-03-28T00:56:38.424Z,5.40
2019-03-28T00:59:00.477Z,5.30
2019-03-28T01:01:29.099Z,5.40
2019-03-28T01:03:57.801Z,5.30
2019-03-28T01:06:26.349Z,5.40
2019-03-28T01:08:54.925Z,5.30
2019-03-28T01:11:23.475Z,5.30
2019-03-28T01:13:52.029Z,5.30
2019-03-28T01:16:20.671Z,5.30
2019-03-28T01:18:49.230Z,5.20
2019-03-28T01:21:17.781Z,5.20
2019-03-28T01:23:46.355Z,5.20
2019-03-28T01:26:14.903Z,5.10
2019-03-28T01:28:43.453Z,5.10
2019-03-28T01:31:12.038Z,5.10
2019-03-28T01:33:40.596Z,5.10
2019-03-28T01:36:09.145Z,5.10
2019-03-28T01:38:37.723Z,5.00
2019-03-28T01:41:06.266Z,5.00
2019-03-28T01:43:34.837Z,5.00
2019-03-28T01:46:03.397Z,5.00
2019-03-28T01:48:31.945Z,5.00
2019-03-28T01:51:00.493Z,5.00
2019-03-28T01:53:29.091Z,4.90
2019-03-28T01:55:57.572Z,4.90
2019-03-28T01:58:26.185Z,4.90
2019-03-28T02:00:54.773Z,4.80
2019-03-28T02:03:23.325Z,4.80
2019-03-28T02:05:51.869Z,4.70
2019-03-28T02:08:20.474Z,4.70
2019-03-28T02:10:49.393Z,4.60
2019-03-28T02:13:18.711Z,4.60
2019-03-28T02:15:47.216Z,4.60
2019-03-28T02:18:15.832Z,4.60
2019-03-28T02:20:44.371Z,4.50
2019-03-28T02:23:13.147Z,4.50
2019-03-28T02:25:41.742Z,4.40
2019-03-28T02:28:10.299Z,4.40
2019-03-28T02:30:38.893Z,4.40
2019-03-28T02:33:07.445Z,4.40
2019-03-28T02:35:35.993Z,4.50
2019-03-28T02:38:04.638Z,4.50
2019-03-28T02:40:33.194Z,4.50
2019-03-28T02:43:01.745Z,4.50
2019-03-28T02:45:30.343Z,4.50
2019-03-28T02:47:58.856Z,4.50
2019-03-28T02:50:27.401Z,4.60
2019-03-28T02:52:55.975Z,4.60
2019-03-28T02:55:24.516Z,4.60
2019-03-28T02:57:53.053Z,4.60
2019-03-28T03:00:21.720Z,4.60
2019-03-28T03:02:50.196Z,4.60
2019-03-28T03:05:18.816Z,4.60
2019-03-28T03:07:47.387Z,4.60
2019-03-28T03:10:15.860Z,4.60
2019-03-28T03:12:44.412Z,4.60
2019-03-28T03:15:14.242Z,4.70
2019-03-28T03:17:42.842Z,4.70
2019-03-28T03:20:12.130Z,4.70
2019-03-28T03:22:40.703Z,4.60
2019-03-28T03:25:09.696Z,4.70
2019-03-28T03:27:38.236Z,4.80
2019-03-28T03:30:09.486Z,4.70
2019-03-28T03:32:38.177Z,4.80
2019-03-28T03:35:07.732Z,4.80
2019-03-28T03:37:36.293Z,4.80
2019-03-28T03:40:09.318Z,4.80
2019-03-28T03:42:37.955Z,4.90
2019-03-28T03:45:09.023Z,4.80
2019-03-28T03:47:38.192Z,4.90
2019-03-28T03:50:08.083Z,4.90
2019-03-28T03:52:36.657Z,4.90
2019-03-28T03:55:06.658Z,4.90
2019-03-28T03:57:35.196Z,4.90
2019-03-28T04:00:06.400Z,4.90
2019-03-28T04:02:34.950Z,5.00
2019-03-28T04:05:04.063Z,5.00
2019-03-28T04:07:32.632Z,5.00
2019-03-28T04:10:01.189Z,5.00
2019-03-28T04:12:29.737Z,5.00
2019-03-28T04:14:58.430Z,5.10
2019-03-28T04:17:28.421Z,5.10
2019-03-28T04:19:56.972Z,5.20
2019-03-28T04:22:25.566Z,5.20
2019-03-28T04:24:54.108Z,5.20
2019-03-28T04:27:22.653Z,5.20
2019-03-28T04:29:51.229Z,5.30
2019-03-28T04:32:20.586Z,5.30
2019-03-28T04:34:49.200Z,5.30
2019-03-28T04:37:17.708Z,5.30
2019-03-28T04:39:46.256Z,5.40
2019-03-28T04:42:14.728Z,5.40
2019-03-28T04:44:43.309Z,5.40
2019-03-28T04:47:11.863Z,5.50
2019-03-28T04:49:40.779Z,5.40
2019-03-28T04:52:09.361Z,5.50
2019-03-28T04:54:37.903Z,5.50
2019-03-28T04:57:06.457Z,5.50
2019-03-28T04:59:35.033Z,5.50
2019-03-28T05:02:05.058Z,5.50
2019-03-28T05:04:33.891Z,5.60
2019-03-28T05:07:02.404Z,5.60
2019-03-28T05:09:30.947Z,5.60
2019-03-28T05:11:59.623Z,5.70
2019-03-28T05:14:28.389Z,5.70
2019-03-28T05:16:56.948Z,5.80
2019-03-28T05:19:25.497Z,5.80
2019-03-28T05:21:56.405Z,5.90
2019-03-28T05:24:25.602Z,6.00
2019-03-28T05:26:54.203Z,6.00
2019-03-28T05:29:23.234Z,6.00
2019-03-28T05:31:51.796Z,6.10
2019-03-28T05:34:20.272Z,6.10
2019-03-28T05:36:52.005Z,6.20
2019-03-28T05:39:19.658Z,6.10
2019-03-28T05:41:48.596Z,6.20
2019-03-28T05:44:17.192Z,6.20
2019-03-28T05:46:45.741Z,6.20
2019-03-28T05:49:14.289Z,6.20
2019-03-28T05:51:42.875Z,6.20
2019-03-28T05:54:11.422Z,6.20
2019-03-28T05:56:39.964Z,6.20
2019-03-28T05:59:11.214Z,6.30
2019-03-28T06:01:38.736Z,6.20
2019-03-28T06:04:07.313Z,6.20
2019-03-28T06:06:36.672Z,6.20
2019-03-28T06:09:07.149Z,6.20
2019-03-28T06:11:35.870Z,6.20
2019-03-28T06:14:04.444Z,6.20
2019-03-28T06:16:33.012Z,6.20
2019-03-28T06:19:01.558Z,6.20
2019-03-28T06:21:30.082Z,6.30
2019-03-28T06:23:58.637Z,6.30
2019-03-28T06:26:30.408Z,6.30
2019-03-28T06:28:58.947Z,6.30
2019-03-28T06:31:27.485Z,6.30
2019-03-28T06:33:56.035Z,6.30
2019-03-28T06:36:26.750Z,6.40
2019-03-28T06:38:55.352Z,6.30
2019-03-28T06:41:23.892Z,6.40
2019-03-28T06:43:52.476Z,6.40
2019-03-28T06:46:21.028Z,6.40
2019-03-28T06:48:49.577Z,6.40
2019-03-28T06:51:18.152Z,6.40
2019-03-28T06:53:46.820Z,6.40
2019-03-28T06:56:15.296Z,6.50
2019-03-28T06:58:43.870Z,6.50
2019-03-28T07:01:12.336Z,6.50
2019-03-28T07:03:40.804Z,6.60
2019-03-28T07:06:09.379Z,6.60
2019-03-28T07:08:37.932Z,6.60
2019-03-28T07:11:06.919Z,6.60
2019-03-28T07:13:36.381Z,6.60
2019-03-28T07:16:04.962Z,6.60
2019-03-28T07:18:33.535Z,6.70
2019-03-28T07:21:02.964Z,6.80
2019-03-28T07:23:31.441Z,6.90
2019-03-28T07:25:59.984Z,6.90
2019-03-28T07:28:28.561Z,7.00
2019-03-28T07:30:57.120Z,7.00
2019-03-28T07:33:25.737Z,7.10
2019-03-28T07:35:54.603Z,7.20
2019-03-28T07:38:23.197Z,7.20
2019-03-28T07:40:51.678Z,7.20
2019-03-28T07:43:20.286Z,7.30
2019-03-28T07:45:48.816Z,7.20
2019-03-28T07:48:17.366Z,7.20
2019-03-28T07:50:45.948Z,7.30
2019-03-28T07:53:14.496Z,7.20
2019-03-28T07:55:43.825Z,7.30
2019-03-28T07:58:12.352Z,7.30
2019-03-28T08:00:40.880Z,7.30
2019-03-28T08:03:09.424Z,7.40
2019-03-28T08:05:38.013Z,7.40
2019-03-28T08:08:06.661Z,7.50
2019-03-28T08:10:35.212Z,7.50
2019-03-28T08:13:04.407Z,7.50
2019-03-28T08:15:32.966Z,7.50
2019-03-28T08:18:01.508Z,7.60
2019-03-28T08:20:30.101Z,7.60
2019-03-28T08:22:58.731Z,7.60
2019-03-28T08:25:27.344Z,7.70
2019-03-28T08:27:57.621Z,7.80
2019-03-28T08:30:37.205Z,7.80
2019-03-28T08:33:08.207Z,7.80
2019-03-28T08:35:37.394Z,7.80
2019-03-28T08:38:10.025Z,7.90
2019-03-28T08:40:43.128Z,8.00
2019-03-28T08:43:12.604Z,8.20
2019-03-28T08:45:41.151Z,8.50
2019-03-28T08:48:09.692Z,8.80
2019-03-28T08:50:38.199Z,9.10
2019-03-28T08:53:06.922Z,9.40
2019-03-28T08:55:35.487Z,9.70
2019-03-28T08:58:04.233Z,9.90
2019-03-28T09:00:44.521Z,10.10
2019-03-28T09:03:03.247Z,10.30
2019-03-28T09:05:31.843Z,10.70
2019-03-28T09:08:00.392Z,11.00
2019-03-28T09:10:28.891Z,11.10
2019-03-28T09:12:57.361Z,11.40
2019-03-28T09:15:25.909Z,11.60
2019-03-28T09:17:55.427Z,11.70
2019-03-28T09:20:24.033Z,11.80
2019-03-28T09:22:52.590Z,12.00
2019-03-28T09:25:21.173Z,12.00
2019-03-28T09:27:51.666Z,12.00
2019-03-28T09:30:23.001Z,12.00
2019-03-28T09:32:51.647Z,11.80
2019-03-28T09:35:29.034Z,11.80
2019-03-28T09:37:58.211Z,11.60
2019-03-28T09:40:26.826Z,11.40
2019-03-28T09:42:55.407Z,11.10
2019-03-28T09:45:23.980Z,11.00
2019-03-28T09:47:52.612Z,10.90
2019-03-28T09:50:21.092Z,11.00
2019-03-28T09:52:49.679Z,11.20
2019-03-28T09:55:19.034Z,11.30
2019-03-28T09:57:47.648Z,11.40
2019-03-28T10:00:16.973Z,11.50
2019-03-28T10:02:45.519Z,11.40
2019-03-28T10:05:14.235Z,11.40
2019-03-28T10:07:42.965Z,11.30
2019-03-28T10:10:12.310Z,11.10
2019-03-28T10:12:43.881Z,11.10
2019-03-28T10:15:11.529Z,11.30
2019-03-28T10:17:42.439Z,11.50
2019-03-28T10:20:11.296Z,11.50
2019-03-28T10:22:40.155Z,11.50
2019-03-28T10:25:12.428Z,11.60
2019-03-28T10:27:39.528Z,11.50
2019-03-28T10:30:08.934Z,11.50
2019-03-28T10:32:37.482Z,11.30
2019-03-28T10:35:07.506Z,11.10
2019-03-28T10:37:36.215Z,11.00
2019-03-28T10:40:07.893Z,10.90
2019-03-28T10:42:36.435Z,10.90
2019-03-28T10:45:06.763Z,10.80
2019-03-28T10:47:35.327Z,10.90
2019-03-28T10:50:05.719Z,11.00
2019-03-28T10:52:34.331Z,11.10
2019-03-28T10:55:02.872Z,11.20
2019-03-28T10:57:32.169Z,11.50
2019-03-28T11:00:01.158Z,12.00
2019-03-28T11:02:29.712Z,13.30
2019-03-28T11:04:58.248Z,14.90
2019-03-28T11:07:26.845Z,16.10
2019-03-28T11:09:55.427Z,16.60
2019-03-28T11:12:23.972Z,16.70
2019-03-28T11:14:52.549Z,16.40
2019-03-28T11:17:21.796Z,16.20
2019-03-28T11:19:50.564Z,16.00
2019-03-28T11:22:19.139Z,16.50
2019-03-28T11:24:47.683Z,17.60
2019-03-28T11:27:16.177Z,18.20
2019-03-28T11:29:44.823Z,18.30
2019-03-28T11:32:13.311Z,18.30
2019-03-28T11:34:42.051Z,18.70
2019-03-28T11:37:24.981Z,19.50
2019-03-28T11:39:41.264Z,20.40
2019-03-28T11:42:09.819Z,21.30
2019-03-28T11:44:38.443Z,22.10
2019-03-28T11:47:07.047Z,22.80
2019-03-28T11:49:35.530Z,23.00
2019-03-28T11:52:04.185Z,23.00
2019-03-28T11:54:32.743Z,22.40
2019-03-28T11:57:01.315Z,21.40
2019-03-28T11:59:31.377Z,20.30
2019-03-28T12:02:18.374Z,19.50
2019-03-28T12:04:30.293Z,18.70
2019-03-28T12:06:58.880Z,18.60
2019-03-28T12:09:27.428Z,19.00
2019-03-28T12:11:55.974Z,19.60
2019-03-28T12:14:24.515Z,20.00
2019-03-28T12:16:53.069Z,19.90
2019-03-28T12:19:21.608Z,19.20
2019-03-28T12:21:50.352Z,18.70
2019-03-28T12:24:18.822Z,18.00
2019-03-28T12:26:47.292Z,17.60
2019-03-28T12:29:15.872Z,17.60
2019-03-28T12:31:44.416Z,17.30
2019-03-28T12:34:12.972Z,17.20
2019-03-28T12:36:41.628Z,17.20
2019-03-28T12:39:10.187Z,17.60
2019-03-28T12:41:38.721Z,18.20
2019-03-28T12:44:07.732Z,18.70
2019-03-28T12:46:36.284Z,19.30
2019-03-28T12:49:04.892Z,19.80
2019-03-28T12:51:34.228Z,19.90
2019-03-28T12:54:02.846Z,19.80
2019-03-28T12:56:31.418Z,19.70
2019-03-28T12:58:59.931Z,19.60
2019-03-28T13:01:28.455Z,19.40
2019-03-28T13:03:57.764Z,19.70
2019-03-28T13:06:26.341Z,20.10
2019-03-28T13:08:55.767Z,20.40
2019-03-28T13:11:24.303Z,20.20
2019-03-28T13:13:52.874Z,19.90
2019-03-28T13:16:21.425Z,19.40
2019-03-28T13:18:50.013Z,18.80
2019-03-28T13:21:18.582Z,18.30
2019-03-28T13:23:47.184Z,17.90
2019-03-28T13:26:15.734Z,17.60
2019-03-28T13:28:44.452Z,17.30
2019-03-28T13:31:12.997Z,17.10
2019-03-28T13:33:41.541Z,17.30
2019-03-28T13:36:10.140Z,17.80
2019-03-28T13:38:38.679Z,18.50
2019-03-28T13:41:07.365Z,18.90
2019-03-28T13:43:35.937Z,19.40
2019-03-28T13:46:04.702Z,19.80
2019-03-28T13:48:33.233Z,20.10
2019-03-28T13:51:01.799Z,20.60
2019-03-28T13:53:39.251Z,20.90
2019-03-28T13:56:00.464Z,21.20
2019-03-28T13:58:29.044Z,21.30
2019-03-28T14:00:57.667Z,21.00
2019-03-28T14:03:26.211Z,20.60
2019-03-28T14:05:54.787Z,19.90
2019-03-28T14:08:23.248Z,19.30
2019-03-28T14:10:51.856Z,18.70
2019-03-28T14:13:21.492Z,18.20
2019-03-28T14:15:52.294Z,17.70
2019-03-28T14:18:22.469Z,17.20
2019-03-28T14:20:51.036Z,16.80
2019-03-28T14:23:19.610Z,16.80
2019-03-28T14:25:48.139Z,17.00
2019-03-28T14:28:16.713Z,17.20
2019-03-28T14:30:45.245Z,17.40
2019-03-28T14:33:15.867Z,17.60
2019-03-28T14:35:43.945Z,17.80
2019-03-28T14:38:12.564Z,18.20
2019-03-28T14:40:41.118Z,18.50
2019-03-28T14:43:10.848Z,18.70
2019-03-28T14:45:39.696Z,19.00
2019-03-28T14:48:08.239Z,19.20
2019-03-28T14:50:39.408Z,19.30
2019-03-28T14:53:08.418Z,19.30
2019-03-28T14:55:37.356Z,19.30
2019-03-28T14:58:06.883Z,19.30
2019-03-28T15:00:46.690Z,19.00
2019-03-28T15:03:25.101Z,18.80
2019-03-28T15:05:44.879Z,18.50
2019-03-28T15:08:13.415Z,18.30
2019-03-28T15:10:42.000Z,18.20
2019-03-28T15:13:10.551Z,18.00
2019-03-28T15:15:39.227Z,17.90
2019-03-28T15:18:07.746Z,17.70
2019-03-28T15:20:36.438Z,17.50
2019-03-28T15:23:05.052Z,17.30
2019-03-28T15:25:33.623Z,17.20
2019-03-28T15:28:02.174Z,17.10
2019-03-28T15:30:30.717Z,17.00
2019-03-28T15:32:59.303Z,16.90
2019-03-28T15:35:27.854Z,16.80
2019-03-28T15:37:56.394Z,16.80
2019-03-28T15:40:24.899Z,16.80
2019-03-28T15:42:53.486Z,16.70
2019-03-28T15:45:21.991Z,16.80
2019-03-28T15:47:52.272Z,16.70
2019-03-28T15:50:21.023Z,16.60
2019-03-28T15:52:49.636Z,16.40
2019-03-28T15:55:18.160Z,16.10
2019-03-28T15:57:46.696Z,15.70
2019-03-28T16:00:15.989Z,15.30
2019-03-28T16:02:44.546Z,14.80
2019-03-28T16:05:13.021Z,14.50
2019-03-28T16:07:41.592Z,14.10
2019-03-28T16:10:14.504Z,13.70
2019-03-28T16:12:42.671Z,13.50
2019-03-28T16:15:11.713Z,13.30
2019-03-28T16:17:40.213Z,13.20
2019-03-28T16:20:09.222Z,13.10
2019-03-28T16:22:39.361Z,13.00
2019-03-28T16:25:08.488Z,12.80
2019-03-28T16:27:37.046Z,12.60
2019-03-28T16:30:08.500Z,12.40
2019-03-28T16:32:37.087Z,12.20
2019-03-28T16:35:09.035Z,12.10
2019-03-28T16:37:37.575Z,11.90
2019-03-28T16:40:08.192Z,11.60
2019-03-28T16:42:36.731Z,11.50
2019-03-28T16:45:07.708Z,11.30
2019-03-28T16:47:36.304Z,11.10
2019-03-28T16:50:06.303Z,10.90
2019-03-28T16:52:34.853Z,10.80
2019-03-28T16:55:03.728Z,10.60
2019-03-28T16:57:32.291Z,10.40
2019-03-28T17:00:00.850Z,10.30
2019-03-28T17:02:29.417Z,10.10
2019-03-28T17:04:57.899Z,10.00
2019-03-28T17:07:27.690Z,9.90
2019-03-28T17:09:56.719Z,9.70
2019-03-28T17:12:25.259Z,9.60
2019-03-28T17:14:53.799Z,9.50
2019-03-28T17:17:22.315Z,9.40
2019-03-28T17:19:50.858Z,9.30
2019-03-28T17:22:19.341Z,9.20
2019-03-28T17:24:48.295Z,9.10
2019-03-28T17:27:16.819Z,9.00
2019-03-28T17:29:45.311Z,8.90
2019-03-28T17:32:13.999Z,8.80
2019-03-28T17:34:45.729Z,8.70
2019-03-28T17:37:12.752Z,8.60
2019-03-28T17:39:41.354Z,8.60
2019-03-28T17:42:09.912Z,8.50
2019-03-28T17:44:38.458Z,8.50
2019-03-28T17:47:07.258Z,8.40
2019-03-28T17:49:35.896Z,8.30
2019-03-28T17:52:04.435Z,8.30
2019-03-28T17:54:32.966Z,8.30
2019-03-28T17:57:01.774Z,8.20
2019-03-28T17:59:30.250Z,8.10
2019-03-28T18:01:58.819Z,8.00
2019-03-28T18:04:27.363Z,8.00
2019-03-28T18:06:56.026Z,8.00
2019-03-28T18:09:24.595Z,7.90
2019-03-28T18:11:53.164Z,7.90
2019-03-28T18:14:21.693Z,7.90
2019-03-28T18:16:50.277Z,7.80
2019-03-28T18:19:18.957Z,7.70
2019-03-28T18:21:47.486Z,7.70
2019-03-28T18:24:16.010Z,7.60
2019-03-28T18:26:44.548Z,7.60
2019-03-28T18:29:13.095Z,7.60
2019-03-28T18:31:50.482Z,7.50
2019-03-28T18:34:12.470Z,7.40
2019-03-28T18:36:41.416Z,7.40
2019-03-28T18:39:09.906Z,7.30
2019-03-28T18:41:38.841Z,7.30
2019-03-28T18:44:07.732Z,7.20
2019-03-28T18:46:38.069Z,7.20
2019-03-28T18:49:06.549Z,7.20
2019-03-28T18:51:35.096Z,7.20
2019-03-28T18:54:04.109Z,7.10
2019-03-28T18:56:32.651Z,7.10
2019-03-28T18:59:01.220Z,7.10
2019-03-28T19:01:29.823Z,7.10
2019-03-28T19:03:58.377Z,7.10
2019-03-28T19:06:27.230Z,7.10
2019-03-28T19:08:56.081Z,7.10
2019-03-28T19:11:24.571Z,7.10
2019-03-28T19:13:53.099Z,7.00
2019-03-28T19:16:21.974Z,6.90
2019-03-28T19:18:51.810Z,6.90
2019-03-28T19:21:20.398Z,6.90
2019-03-28T19:23:48.975Z,6.90
2019-03-28T19:26:17.543Z,6.80
2019-03-28T19:28:46.247Z,6.80
2019-03-28T19:31:14.774Z,6.80
2019-03-28T19:33:43.318Z,6.70
2019-03-28T19:36:14.116Z,6.70
2019-03-28T19:38:43.135Z,6.70
2019-03-28T19:41:11.716Z,6.70
2019-03-28T19:43:42.143Z,6.70
2019-03-28T19:46:10.797Z,6.70
2019-03-28T19:48:39.344Z,6.70
2019-03-28T19:51:08.923Z,6.60
2019-03-28T19:53:37.585Z,6.60
2019-03-28T19:56:06.153Z,6.60
2019-03-28T19:58:35.213Z,6.60
2019-03-28T20:01:09.869Z,6.60
2019-03-28T20:03:38.475Z,6.60
2019-03-28T20:06:21.579Z,6.50
2019-03-28T20:08:39.462Z,6.40
2019-03-28T20:11:08.095Z,6.30
2019-03-28T20:13:36.632Z,6.30
2019-03-28T20:16:05.151Z,6.20
2019-03-28T20:18:33.706Z,6.10
2019-03-28T20:21:02.279Z,6.00
2019-03-28T20:23:30.934Z,6.00
2019-03-28T20:25:59.474Z,6.00
2019-03-28T20:28:28.038Z,5.90
2019-03-28T20:30:56.639Z,5.90
2019-03-28T20:33:25.343Z,5.80
2019-03-28T20:36:06.260Z,5.80
2019-03-28T20:38:24.284Z,5.80
2019-03-28T20:40:53.900Z,5.90
2019-03-28T20:43:22.453Z,5.90
2019-03-28T20:45:51.024Z,5.90
2019-03-28T20:48:19.536Z,5.90
2019-03-28T20:50:48.051Z,5.90
2019-03-28T20:53:17.059Z,5.90
2019-03-28T20:55:45.579Z,5.80
2019-03-28T20:58:14.131Z,5.80
2019-03-28T21:00:47.463Z,5.70
2019-03-28T21:03:15.965Z,5.60
2019-03-28T21:05:45.412Z,5.60
2019-03-28T21:08:14.529Z,5.50
2019-03-28T21:10:43.142Z,5.50
2019-03-28T21:13:11.617Z,5.40
2019-03-28T21:15:40.194Z,5.40
2019-03-28T21:18:08.733Z,5.40
2019-03-28T21:20:37.224Z,5.40
2019-03-28T21:23:05.820Z,5.30
2019-03-28T21:25:34.375Z,5.30
2019-03-28T21:28:02.882Z,5.30
2019-03-28T21:30:31.878Z,5.40
2019-03-28T21:33:00.408Z,5.40
2019-03-28T21:35:28.957Z,5.40
2019-03-28T21:37:57.558Z,5.50
2019-03-28T21:40:26.104Z,5.40
2019-03-28T21:42:54.635Z,5.50
2019-03-28T21:45:23.204Z,5.50
2019-03-28T21:47:51.667Z,5.50
2019-03-28T21:50:20.187Z,5.40
2019-03-28T21:52:48.763Z,5.50
2019-03-28T21:55:17.320Z,5.50
2019-03-28T21:57:45.786Z,5.60
2019-03-28T22:00:15.502Z,5.50
2019-03-28T22:02:43.976Z,5.50
2019-03-28T22:05:12.905Z,5.50
2019-03-28T22:07:41.497Z,5.50
2019-03-28T22:10:10.372Z,5.50
2019-03-28T22:12:38.939Z,5.40
2019-03-28T22:15:09.149Z,5.40
2019-03-28T22:17:37.704Z,5.40
2019-03-28T22:20:07.087Z,5.40
2019-03-28T22:22:36.387Z,5.40
2019-03-28T22:25:06.603Z,5.30
2019-03-28T22:27:35.144Z,5.30
2019-03-28T22:30:04.301Z,5.30
2019-03-28T22:32:32.849Z,5.30
2019-03-28T22:35:01.399Z,5.30
2019-03-28T22:37:29.980Z,5.30
2019-03-28T22:39:58.522Z,5.30
2019-03-28T22:42:26.997Z,5.30
2019-03-28T22:44:55.580Z,5.30
2019-03-28T22:47:24.044Z,5.20
2019-03-28T22:49:52.514Z,5.20
2019-03-28T22:52:21.026Z,5.20
2019-03-28T22:54:49.573Z,5.10
2019-03-28T22:57:18.120Z,5.10
2019-03-28T22:59:46.636Z,5.20
2019-03-28T23:02:15.190Z,5.20
2019-03-28T23:04:43.736Z,5.20
2019-03-28T23:07:12.321Z,5.20
2019-03-28T23:09:40.890Z,5.20
2019-03-28T23:12:09.428Z,5.10
2019-03-28T23:14:37.947Z,5.10
2019-03-28T23:17:06.507Z,5.10
2019-03-28T23:19:35.048Z,5.00
2019-03-28T23:22:03.689Z,4.90
2019-03-28T23:24:32.218Z,4.90
2019-03-28T23:27:00.988Z,4.80
2019-03-28T23:29:29.911Z,4.80
2019-03-28T23:31:58.460Z,4.80
2019-03-28T23:34:27.012Z,4.70
2019-03-28T23:36:55.594Z,4.70
2019-03-28T23:39:24.136Z,4.60
2019-03-28T23:41:52.635Z,4.50
2019-03-28T23:44:21.189Z,4.60
2019-03-28T23:46:49.732Z,4.60
2019-03-28T23:49:18.380Z,4.60
2019-03-28T23:51:46.993Z,4.60
2019-03-28T23:54:15.492Z,4.60
2019-03-28T23:56:43.961Z,4.60
2019-03-28T23:59:13.744Z,4.60
